Time;durP1;ratioP1;P1;durP2;ratioP2;P2;SDS_P1;SDS_P2;PMS_P1;PMS_P2;Temp;Humidity;BMP_temperature;BMP_pressure;BME280_temperature;BME280_humidity;BME280_pressure;Samples;Min_cycle;Max_cycle;Signal;HPM_P1;HPM_P2
2023/02/04 00:01:36;;;;;;;29.30;4.60;;;7.60;99.90;;;;;;5012476;28;20200;-53
2023/02/04 00:04:01;;;;;;;21.80;3.63;;;7.60;99.90;;;;;;5012239;28;20346;-54
2023/02/04 00:06:27;;;;;;;25.10;4.03;;;7.60;99.90;;;;;;5012153;28;20080;-53
2023/02/04 00:08:53;;;;;;;22.53;3.53;;;7.60;99.90;;;;;;4994896;28;20063;-52
2023/02/04 00:11:19;;;;;;;30.80;4.03;;;7.50;99.90;;;;;;5012482;28;20040;-56
2023/02/04 00:13:45;;;;;;;24.73;3.83;;;7.60;99.90;;;;;;5012111;28;20038;-52
2023/02/04 00:16:11;;;;;;;19.80;4.30;;;7.50;99.90;;;;;;5012143;28;20049;-52
2023/02/04 00:18:37;;;;;;;22.50;3.67;;;7.60;99.90;;;;;;5011786;28;20029;-53
2023/02/04 00:21:02;;;;;;;23.90;3.97;;;7.60;99.90;;;;;;5012474;28;20026;-53
2023/02/04 00:23:28;;;;;;;22.97;4.70;;;7.60;99.90;;;;;;5011854;28;20037;-56
2023/02/04 00:25:54;;;;;;;26.40;4.27;;;7.60;99.90;;;;;;5012064;28;20030;-53
2023/02/04 00:28:20;;;;;;;29.57;4.40;;;7.60;99.90;;;;;;5011582;28;20037;-55
2023/02/04 00:30:46;;;;;;;27.10;4.30;;;7.50;99.90;;;;;;5010565;28;20091;-53
2023/02/04 00:33:12;;;;;;;24.07;3.77;;;7.50;99.90;;;;;;5010573;28;20034;-54
2023/02/04 00:35:38;;;;;;;25.10;4.17;;;7.50;99.90;;;;;;5011970;28;20064;-54
2023/02/04 00:38:05;;;;;;;23.97;3.87;;;7.50;99.90;;;;;;5011935;28;20045;-52
2023/02/04 00:40:31;;;;;;;30.77;4.60;;;7.50;99.90;;;;;;5012061;28;20033;-54
2023/02/04 00:42:57;;;;;;;28.40;4.20;;;7.60;99.90;;;;;;5011917;28;20026;-53
2023/02/04 00:45:23;;;;;;;23.43;3.93;;;7.60;99.90;;;;;;5010289;28;20029;-53
2023/02/04 00:47:49;;;;;;;24.73;4.93;;;7.60;99.90;;;;;;5011415;28;20029;-54
2023/02/04 00:50:15;;;;;;;22.67;3.63;;;7.60;99.90;;;;;;5010602;28;20429;-53
2023/02/04 00:52:42;;;;;;;20.67;3.47;;;7.60;99.90;;;;;;5010747;28;20040;-53
2023/02/04 00:55:09;;;;;;;28.13;4.37;;;7.50;99.90;;;;;;5010412;28;20482;-55
2023/02/04 00:57:35;;;;;;;32.47;4.10;;;7.50;99.90;;;;;;5011504;28;20062;-52
2023/02/04 01:00:01;;;;;;;23.17;3.20;;;7.50;99.90;;;;;;5010425;28;20068;-53
2023/02/04 01:02:26;;;;;;;28.93;3.97;;;7.40;99.90;;;;;;5010323;28;20056;-52
2023/02/04 01:04:52;;;;;;;25.70;3.97;;;7.50;99.90;;;;;;5011481;28;20022;-53
2023/02/04 01:07:18;;;;;;;24.10;3.43;;;7.50;99.90;;;;;;5011499;28;20453;-53
2023/02/04 01:09:43;;;;;;;20.27;4.30;;;7.50;99.90;;;;;;5011609;28;20113;-53
2023/02/04 01:12:10;;;;;;;26.87;4.63;;;7.40;99.90;;;;;;5011570;28;20072;-55
2023/02/04 01:14:35;;;;;;;23.53;3.63;;;7.40;99.90;;;;;;5011238;28;20053;-52
2023/02/04 01:17:01;;;;;;;25.30;4.23;;;7.40;99.90;;;;;;5009737;28;20465;-54
2023/02/04 01:19:27;;;;;;;24.20;3.90;;;7.40;99.90;;;;;;5011514;28;20123;-55
2023/02/04 01:21:53;;;;;;;24.03;4.07;;;7.40;99.90;;;;;;5010230;28;20100;-54
2023/02/04 01:24:19;;;;;;;33.13;3.87;;;7.40;99.90;;;;;;5009953;28;20142;-53
2023/02/04 01:27:03;;;;;;;25.00;3.93;;;7.40;99.90;;;;;;5011304;28;20028;-55
2023/02/04 01:29:28;;;;;;;26.33;3.30;;;7.40;99.90;;;;;;4993398;28;20033;-55
2023/02/04 01:31:54;;;;;;;26.73;4.00;;;7.40;99.90;;;;;;5011191;28;20065;-54
2023/02/04 01:34:20;;;;;;;27.40;3.80;;;7.40;99.90;;;;;;5010899;28;20340;-54
2023/02/04 01:36:45;;;;;;;32.03;3.53;;;7.50;99.90;;;;;;5009423;28;20586;-53
2023/02/04 01:39:12;;;;;;;27.70;3.30;;;7.40;99.90;;;;;;5009814;28;20030;-51
2023/02/04 01:41:38;;;;;;;23.50;3.57;;;7.40;99.90;;;;;;5010290;28;20034;-55
2023/02/04 01:44:04;;;;;;;15.67;3.07;;;7.40;99.90;;;;;;5010525;28;20026;-54
2023/02/04 01:46:33;;;;;;;26.03;3.53;;;7.40;99.90;;;;;;5010449;28;20060;-55
2023/02/04 01:48:59;;;;;;;27.27;4.40;;;7.40;99.90;;;;;;5010843;28;20119;-53
2023/02/04 01:51:28;;;;;;;19.60;3.70;;;7.40;99.90;;;;;;5009562;28;20125;-55
2023/02/04 01:53:54;;;;;;;25.25;3.95;;;7.40;99.90;;;;;;5010823;28;20037;-55
2023/02/04 01:56:25;;;;;;;27.13;4.03;;;7.40;99.90;;;;;;5010667;28;20116;-54
2023/02/04 01:58:52;;;;;;;29.20;4.60;;;7.40;99.90;;;;;;5009307;28;20038;-52
2023/02/04 02:01:42;;;;;;;29.10;4.37;;;7.40;99.90;;;;;;5009356;28;20038;-53
2023/02/04 02:04:12;;;;;;;28.90;4.20;;;7.40;99.90;;;;;;5010628;28;20424;-54
2023/02/04 02:06:42;;;;;;;29.10;3.47;;;7.40;99.90;;;;;;5010478;28;20429;-53
2023/02/04 02:09:08;;;;;;;29.73;3.60;;;7.40;99.90;;;;;;5010509;28;20033;-55
2023/02/04 02:11:34;;;;;;;29.93;4.47;;;7.40;99.90;;;;;;5010587;28;20483;-54
2023/02/04 02:14:00;;;;;;;25.93;4.17;;;7.40;99.90;;;;;;5009080;28;20445;-51
2023/02/04 02:16:26;;;;;;;34.00;5.13;;;7.40;99.90;;;;;;5010214;28;20068;-54
2023/02/04 02:18:53;;;;;;;23.03;4.03;;;7.40;99.90;;;;;;5009132;28;20033;-54
2023/02/04 02:21:29;;;;;;;24.60;4.03;;;7.40;99.90;;;;;;5010523;28;20062;-53
2023/02/04 02:23:59;;;;;;;27.77;4.07;;;7.40;99.90;;;;;;5009003;28;20092;-51
2023/02/04 02:26:26;;;;;;;33.30;4.80;;;7.40;99.90;;;;;;5010091;28;20113;-53
2023/02/04 02:28:52;;;;;;;25.57;4.43;;;7.40;99.90;;;;;;5008867;28;20267;-53
2023/02/04 02:31:20;;;;;;;34.33;5.27;;;7.40;99.90;;;;;;5010303;28;20049;-54
2023/02/04 02:33:46;;;;;;;30.20;4.40;;;7.40;99.90;;;;;;5010337;28;20112;-52
2023/02/04 02:36:15;;;;;;;30.23;4.47;;;7.40;99.90;;;;;;5010000;28;20033;-53
2023/02/04 02:38:41;;;;;;;20.77;4.23;;;7.30;99.90;;;;;;5009802;28;20033;-52
2023/02/04 02:41:09;;;;;;;29.97;4.20;;;7.30;99.90;;;;;;5008995;28;20033;-50
2023/02/04 02:43:35;;;;;;;21.93;4.10;;;7.30;99.90;;;;;;5008635;28;20427;-53
2023/02/04 02:46:03;;;;;;;34.50;4.57;;;7.30;99.90;;;;;;5009022;28;20026;-54
2023/02/04 02:48:31;;;;;;;26.83;4.10;;;7.30;99.90;;;;;;5008524;28;20037;-53
2023/02/04 02:50:56;;;;;;;28.13;4.10;;;7.30;99.90;;;;;;5008830;28;20041;-54
2023/02/04 02:53:22;;;;;;;26.77;4.30;;;7.30;99.90;;;;;;5011556;28;20107;-55
2023/02/04 02:55:49;;;;;;;26.83;3.70;;;7.30;99.90;;;;;;5012401;28;20044;-55
2023/02/04 02:58:33;;;;;;;22.60;3.40;;;7.30;99.90;;;;;;5012102;28;20034;-52
2023/02/04 03:01:06;;;;;;;33.20;4.30;;;7.20;99.90;;;;;;5013623;28;20026;-52
2023/02/04 03:03:37;;;;;;;31.73;4.67;;;7.20;99.90;;;;;;5012139;28;20030;-50
2023/02/04 03:06:07;;;;;;;23.65;4.78;;;7.30;99.90;;;;;;5012443;28;20233;-50
2023/02/04 03:08:33;;;;;;;28.07;3.53;;;7.30;99.90;;;;;;5013148;28;20033;-53
2023/02/04 03:10:59;;;;;;;26.97;4.27;;;7.30;99.90;;;;;;5012160;28;20036;-54
2023/02/04 03:13:25;;;;;;;30.83;4.70;;;7.30;99.90;;;;;;5011781;28;20034;-53
2023/02/04 03:15:50;;;;;;;22.47;3.90;;;7.20;99.90;;;;;;5011914;28;20045;-52
2023/02/04 03:18:18;;;;;;;24.23;3.93;;;7.20;99.90;;;;;;5011601;28;20030;-53
2023/02/04 03:20:45;;;;;;;34.87;4.67;;;7.10;99.90;;;;;;5011865;28;20053;-53
2023/02/04 03:23:11;;;;;;;31.77;3.90;;;7.20;99.90;;;;;;5011877;28;20050;-54
2023/02/04 03:25:38;;;;;;;25.00;3.63;;;7.10;99.90;;;;;;5013087;28;20030;-53
2023/02/04 03:28:04;;;;;;;29.60;3.83;;;7.10;99.90;;;;;;5012886;28;20469;-53
2023/02/04 03:30:30;;;;;;;35.47;5.13;;;7.10;99.90;;;;;;5012857;28;20109;-52
2023/02/04 03:32:57;;;;;;;33.17;4.67;;;7.10;99.90;;;;;;5011711;28;20033;-53
2023/02/04 03:35:23;;;;;;;27.70;4.07;;;7.10;99.90;;;;;;5012988;28;20101;-53
2023/02/04 03:37:48;;;;;;;32.43;4.23;;;7.00;99.90;;;;;;5011247;28;20534;-52
2023/02/04 03:40:14;;;;;;;24.40;3.70;;;7.00;99.90;;;;;;5012870;28;20022;-53
2023/02/04 03:42:40;;;;;;;24.20;3.47;;;7.00;99.90;;;;;;5012794;28;20450;-50
2023/02/04 03:45:06;;;;;;;27.13;4.00;;;7.00;99.90;;;;;;5012450;28;20025;-53
2023/02/04 03:47:32;;;;;;;26.73;3.87;;;7.00;99.90;;;;;;5028779;23;20056;-52
2023/02/04 03:49:58;;;;;;;32.57;4.47;;;7.00;99.90;;;;;;5032354;28;20030;-54
2023/02/04 03:52:24;;;;;;;24.83;3.50;;;7.00;99.90;;;;;;5032502;28;20033;-51
2023/02/04 03:54:49;;;;;;;31.43;4.67;;;7.00;99.90;;;;;;5032138;28;20482;-53
2023/02/04 03:57:15;;;;;;;27.47;3.90;;;7.00;99.90;;;;;;5031990;28;20041;-49
2023/02/04 03:59:41;;;;;;;27.03;3.87;;;7.00;99.90;;;;;;5032229;28;20179;-51
2023/02/04 04:02:07;;;;;;;29.77;3.57;;;7.00;99.90;;;;;;5032141;28;20041;-48
2023/02/04 04:04:33;;;;;;;23.50;4.90;;;7.00;99.90;;;;;;5031534;28;20060;-50
2023/02/04 04:06:58;;;;;;;26.00;4.20;;;7.00;99.90;;;;;;5031931;28;20113;-52
2023/02/04 04:09:24;;;;;;;23.27;4.87;;;6.90;99.90;;;;;;5032230;28;20036;-49
2023/02/04 04:11:50;;;;;;;26.83;4.10;;;7.00;99.90;;;;;;5031936;28;20029;-53
2023/02/04 04:14:15;;;;;;;25.10;4.67;;;7.00;99.90;;;;;;5031806;28;20032;-51
2023/02/04 04:16:41;;;;;;;33.33;4.77;;;7.00;99.90;;;;;;5031694;28;20126;-48
2023/02/04 04:19:07;;;;;;;31.83;4.20;;;7.00;99.90;;;;;;5031898;28;20034;-51
2023/02/04 04:21:32;;;;;;;26.53;4.63;;;6.90;99.90;;;;;;5031790;28;20113;-52
2023/02/04 04:23:58;;;;;;;24.70;4.20;;;6.90;99.90;;;;;;5031605;28;20104;-54
2023/02/04 04:26:24;;;;;;;28.40;5.23;;;6.90;99.90;;;;;;5031554;28;20075;-51
2023/02/04 04:28:49;;;;;;;29.27;4.47;;;6.80;99.90;;;;;;5031568;28;20032;-50
2023/02/04 04:31:15;;;;;;;26.60;4.23;;;6.80;99.90;;;;;;5032038;28;20030;-50
2023/02/04 04:33:41;;;;;;;27.80;4.60;;;6.90;99.90;;;;;;5031741;28;20028;-49
2023/02/04 04:36:07;;;;;;;27.10;4.73;;;6.80;99.90;;;;;;5031551;28;20032;-48
2023/02/04 04:38:33;;;;;;;30.83;5.13;;;6.80;99.90;;;;;;5031112;28;20434;-53
2023/02/04 04:40:59;;;;;;;33.47;4.93;;;6.80;99.90;;;;;;5031462;28;20060;-49
2023/02/04 04:43:25;;;;;;;26.27;4.60;;;6.80;99.90;;;;;;5031288;28;20109;-48
2023/02/04 04:45:50;;;;;;;26.83;5.50;;;6.70;99.90;;;;;;5031237;28;20044;-52
2023/02/04 04:48:16;;;;;;;26.40;4.40;;;6.70;99.90;;;;;;5030878;28;20033;-51
2023/02/04 04:50:42;;;;;;;31.13;4.90;;;6.70;99.90;;;;;;5031429;28;20067;-53
2023/02/04 04:53:10;;;;;;;27.53;4.50;;;6.70;99.90;;;;;;5031355;28;20029;-53
2023/02/04 04:55:39;;;;;;;22.70;4.17;;;6.80;99.90;;;;;;5031005;28;20033;-54
2023/02/04 04:58:07;;;;;;;23.42;4.38;;;6.80;99.90;;;;;;5029958;28;20040;-51
2023/02/04 05:00:33;;;;;;;30.25;4.30;;;6.80;99.90;;;;;;5031068;28;20045;-50
2023/02/04 05:03:00;;;;;;;30.20;5.20;;;6.80;99.90;;;;;;5031009;28;20025;-52
2023/02/04 05:05:25;;;;;;;26.13;4.30;;;6.70;99.90;;;;;;5031051;28;20064;-50
2023/02/04 05:07:52;;;;;;;24.07;4.80;;;6.60;99.90;;;;;;5030796;28;20056;-52
2023/02/04 05:10:18;;;;;;;27.27;4.50;;;6.60;99.90;;;;;;5031036;28;20048;-53
2023/02/04 05:12:44;;;;;;;28.83;4.53;;;6.60;99.90;;;;;;5030937;28;20040;-53
2023/02/04 05:15:10;;;;;;;33.90;5.87;;;6.50;99.90;;;;;;5030703;28;20405;-51
2023/02/04 05:17:36;;;;;;;29.50;5.73;;;6.50;99.90;;;;;;5030523;28;20026;-49
2023/02/04 05:20:01;;;;;;;27.20;4.60;;;6.50;99.90;;;;;;5030997;28;20084;-52
2023/02/04 05:22:27;;;;;;;25.60;5.03;;;6.60;99.90;;;;;;5030866;28;20402;-52
2023/02/04 05:24:53;;;;;;;28.57;5.23;;;6.60;99.90;;;;;;5030406;28;20033;-52
2023/02/04 05:27:18;;;;;;;26.37;5.37;;;6.60;99.90;;;;;;5030400;28;20048;-51
2023/02/04 05:29:44;;;;;;;25.90;5.70;;;6.60;99.90;;;;;;5030574;28;20037;-49
2023/02/04 05:32:10;;;;;;;31.53;4.77;;;6.60;99.90;;;;;;5030785;28;20124;-50
2023/02/04 05:34:35;;;;;;;26.57;4.53;;;6.60;99.90;;;;;;5030478;28;20040;-53
2023/02/04 05:37:01;;;;;;;24.70;4.47;;;6.60;99.90;;;;;;5030382;28;20032;-47
2023/02/04 05:39:27;;;;;;;28.30;5.27;;;6.60;99.90;;;;;;5030471;28;20462;-51
2023/02/04 05:41:53;;;;;;;25.60;5.77;;;6.60;99.90;;;;;;5030441;28;20029;-51
2023/02/04 05:44:18;;;;;;;29.73;4.10;;;6.60;99.90;;;;;;5030237;28;20501;-53
2023/02/04 05:46:44;;;;;;;28.43;4.63;;;6.50;99.90;;;;;;5030280;28;20056;-51
2023/02/04 05:49:10;;;;;;;33.50;4.63;;;6.50;99.90;;;;;;5030321;28;20476;-49
2023/02/04 05:51:36;;;;;;;36.03;4.93;;;6.50;99.90;;;;;;5030378;28;20049;-51
2023/02/04 05:54:02;;;;;;;26.10;4.50;;;6.50;99.90;;;;;;5030170;28;20037;-51
2023/02/04 05:56:29;;;;;;;24.87;5.03;;;6.40;99.90;;;;;;5030233;28;20033;-53
2023/02/04 05:58:54;;;;;;;24.77;4.43;;;6.50;99.90;;;;;;5030130;28;20502;-51
2023/02/04 06:01:20;;;;;;;20.97;4.67;;;6.50;99.90;;;;;;5030257;28;20076;-50
2023/02/04 06:03:46;;;;;;;28.47;5.43;;;6.50;99.90;;;;;;5030210;28;20030;-51
2023/02/04 06:06:11;;;;;;;25.83;4.17;;;6.50;99.90;;;;;;5030292;28;20445;-50
2023/02/04 06:08:37;;;;;;;26.20;4.33;;;6.50;99.90;;;;;;5029875;28;20044;-52
2023/02/04 06:11:03;;;;;;;30.13;4.47;;;6.60;99.90;;;;;;5030106;28;20112;-50
2023/02/04 06:13:29;;;;;;;41.07;5.10;;;6.60;99.90;;;;;;5030234;28;20037;-50
2023/02/04 06:15:54;;;;;;;25.40;4.80;;;6.50;99.90;;;;;;5030396;28;20033;-46
2023/02/04 06:18:20;;;;;;;26.97;5.27;;;6.60;99.90;;;;;;5029946;28;20041;-51
2023/02/04 06:20:46;;;;;;;27.70;4.10;;;6.60;99.90;;;;;;5030092;28;20029;-50
2023/02/04 06:23:12;;;;;;;33.00;4.70;;;6.60;99.90;;;;;;5030531;28;20026;-50
2023/02/04 06:25:37;;;;;;;23.40;4.57;;;6.60;99.90;;;;;;5029941;28;20470;-51
2023/02/04 06:28:03;;;;;;;37.13;5.77;;;6.60;99.90;;;;;;5032370;28;20167;-52
2023/02/04 06:30:29;;;;;;;24.80;4.50;;;6.60;99.90;;;;;;5033898;28;20029;-50
2023/02/04 06:32:55;;;;;;;29.23;5.20;;;6.60;99.90;;;;;;5034082;28;20152;-55
2023/02/04 06:35:20;;;;;;;26.70;5.83;;;6.70;99.90;;;;;;5033793;28;20490;-53
2023/02/04 06:37:46;;;;;;;26.80;4.43;;;6.70;99.90;;;;;;5033559;28;20034;-52
2023/02/04 06:40:12;;;;;;;25.47;5.23;;;6.70;99.90;;;;;;5033707;28;20108;-50
2023/02/04 06:42:38;;;;;;;23.27;4.67;;;6.70;99.90;;;;;;5033690;28;20496;-49
2023/02/04 06:45:04;;;;;;;28.27;4.87;;;6.70;99.90;;;;;;5033732;28;20135;-54
2023/02/04 06:47:29;;;;;;;27.87;4.73;;;6.70;99.90;;;;;;5033263;28;20051;-49
2023/02/04 06:49:55;;;;;;;25.27;5.10;;;6.70;99.90;;;;;;5033572;28;20029;-52
2023/02/04 06:52:21;;;;;;;33.17;6.30;;;6.70;99.90;;;;;;5033568;28;20490;-51
2023/02/04 06:54:46;;;;;;;29.43;4.93;;;6.70;99.90;;;;;;5033222;28;20034;-51
2023/02/04 06:57:12;;;;;;;33.67;5.87;;;6.70;99.90;;;;;;5033113;28;20164;-47
2023/02/04 06:59:39;;;;;;;40.97;6.17;;;6.70;99.90;;;;;;5033375;28;20026;-50
2023/02/04 07:02:06;;;;;;;30.33;4.63;;;6.80;99.90;;;;;;5033252;28;20075;-51
2023/02/04 07:04:33;;;;;;;30.93;4.90;;;6.80;99.90;;;;;;5033126;28;20041;-50
2023/02/04 07:06:59;;;;;;;27.67;4.97;;;6.70;99.90;;;;;;5032902;28;20032;-50
2023/02/04 07:09:25;;;;;;;28.67;5.17;;;6.70;99.90;;;;;;5033072;28;20025;-51
2023/02/04 07:11:50;;;;;;;27.07;4.50;;;6.70;99.90;;;;;;5033090;28;20029;-49
2023/02/04 07:14:17;;;;;;;32.80;4.50;;;6.70;99.90;;;;;;5032946;28;20037;-51
2023/02/04 07:16:43;;;;;;;31.27;4.77;;;6.70;99.90;;;;;;5033185;28;20027;-48
2023/02/04 07:19:09;;;;;;;34.87;5.57;;;6.70;99.90;;;;;;5032839;28;20553;-50
2023/02/04 07:21:34;;;;;;;44.23;5.07;;;6.70;99.90;;;;;;5031773;28;20037;-49
2023/02/04 07:24:00;;;;;;;31.60;4.70;;;6.70;99.90;;;;;;5032696;28;20033;-52
2023/02/04 07:26:26;;;;;;;36.13;5.37;;;6.60;99.90;;;;;;5032604;28;20437;-51
2023/02/04 07:28:52;;;;;;;37.07;4.73;;;6.60;99.90;;;;;;5032753;28;20026;-52
2023/02/04 07:31:17;;;;;;;25.57;4.17;;;6.60;99.90;;;;;;5033339;28;20382;-50
2023/02/04 07:33:43;;;;;;;29.60;4.23;;;6.60;99.90;;;;;;5033030;28;20032;-51
2023/02/04 07:36:09;;;;;;;39.47;4.63;;;6.60;99.90;;;;;;5032752;28;20037;-50
2023/02/04 07:38:34;;;;;;;35.60;5.97;;;6.60;99.90;;;;;;5031044;28;20037;-53
2023/02/04 07:41:00;;;;;;;33.90;5.20;;;6.70;99.90;;;;;;5032602;28;20055;-52
2023/02/04 07:43:26;;;;;;;34.63;5.70;;;6.60;99.90;;;;;;5032768;28;20071;-54
2023/02/04 07:45:51;;;;;;;32.20;5.47;;;6.60;99.90;;;;;;5032596;28;20036;-52
2023/02/04 07:48:17;;;;;;;43.97;6.73;;;6.60;99.90;;;;;;5032175;28;20112;-48
2023/02/04 07:50:43;;;;;;;30.43;5.47;;;6.70;99.90;;;;;;5032395;28;20413;-51
2023/02/04 07:53:08;;;;;;;32.77;5.03;;;6.70;99.90;;;;;;5032370;28;20030;-52
2023/02/04 07:55:34;;;;;;;38.73;5.43;;;6.80;99.90;;;;;;5032340;28;20060;-50
2023/02/04 07:58:00;;;;;;;29.97;4.70;;;6.80;99.90;;;;;;5031951;28;20043;-53
2023/02/04 08:00:26;;;;;;;32.97;5.10;;;6.80;99.90;;;;;;5032261;28;20107;-53
2023/02/04 08:02:51;;;;;;;40.33;5.07;;;6.90;99.90;;;;;;5032232;28;20026;-51
2023/02/04 08:05:17;;;;;;;28.77;5.63;;;7.00;99.90;;;;;;5032119;28;20478;-52
2023/02/04 08:07:43;;;;;;;25.17;4.20;;;7.00;99.90;;;;;;5031888;28;20030;-50
2023/02/04 08:10:09;;;;;;;38.00;4.77;;;7.10;99.90;;;;;;5031970;28;20069;-51
2023/02/04 08:12:35;;;;;;;24.60;4.70;;;7.10;99.90;;;;;;5032174;28;20472;-50
2023/02/04 08:15:01;;;;;;;34.33;6.50;;;7.20;99.90;;;;;;5031717;28;20036;-51
2023/02/04 08:17:28;;;;;;;24.47;5.50;;;7.10;99.90;;;;;;5031674;28;20038;-53
2023/02/04 08:19:53;;;;;;;27.87;5.10;;;7.10;99.90;;;;;;5031755;28;20026;-51
2023/02/04 08:22:19;;;;;;;32.63;5.20;;;7.10;99.90;;;;;;5031756;28;20048;-54
2023/02/04 08:24:45;;;;;;;37.27;6.37;;;7.20;99.90;;;;;;5031634;28;20499;-52
2023/02/04 08:27:11;;;;;;;26.90;4.90;;;7.10;99.90;;;;;;5030231;28;20486;-54
2023/02/04 08:29:37;;;;;;;26.77;5.63;;;7.10;99.90;;;;;;5031617;28;20087;-53
2023/02/04 08:32:03;;;;;;;40.20;5.57;;;7.10;99.90;;;;;;5031749;28;20029;-48
2023/02/04 08:34:29;;;;;;;28.07;5.27;;;7.10;99.90;;;;;;5031388;28;20410;-50
2023/02/04 08:36:54;;;;;;;34.80;5.53;;;7.10;99.90;;;;;;5031229;28;20033;-52
2023/02/04 08:39:20;;;;;;;34.60;5.40;;;7.20;99.90;;;;;;5031528;28;20056;-52
2023/02/04 08:41:48;;;;;;;30.40;6.10;;;7.20;99.90;;;;;;5031431;28;20033;-52
2023/02/04 08:44:14;;;;;;;32.37;4.87;;;7.20;99.90;;;;;;5031357;28;20038;-50
2023/02/04 08:46:40;;;;;;;30.93;5.20;;;7.30;99.90;;;;;;5031443;28;20036;-52
2023/02/04 08:49:05;;;;;;;31.63;5.57;;;7.30;99.90;;;;;;5029962;28;20421;-52
2023/02/04 08:51:31;;;;;;;28.40;6.23;;;7.40;99.90;;;;;;5030923;28;20042;-50
2023/02/04 08:53:57;;;;;;;32.00;5.63;;;7.50;99.90;;;;;;5031225;28;20076;-51
2023/02/04 08:56:23;;;;;;;30.17;6.90;;;7.50;99.90;;;;;;5031087;28;20037;-51
2023/02/04 08:58:49;;;;;;;29.17;6.10;;;7.50;99.90;;;;;;5031026;28;20034;-52
2023/02/04 09:01:15;;;;;;;37.77;6.40;;;7.40;99.90;;;;;;5031016;28;20051;-52
2023/02/04 09:03:40;;;;;;;40.60;6.87;;;7.40;99.90;;;;;;5030982;28;20033;-53
2023/02/04 09:06:06;;;;;;;37.57;7.10;;;7.40;99.90;;;;;;5031001;28;20025;-53
2023/02/04 09:08:32;;;;;;;36.03;7.00;;;7.50;99.90;;;;;;5030985;28;20037;-54
2023/02/04 09:10:58;;;;;;;26.23;5.70;;;7.50;99.90;;;;;;5030960;28;20113;-54
2023/02/04 09:13:24;;;;;;;26.83;5.57;;;7.60;99.90;;;;;;5030974;28;20061;-49
2023/02/04 09:15:51;;;;;;;36.47;6.57;;;7.70;99.90;;;;;;5031118;28;20525;-51
2023/02/04 09:18:20;;;;;;;36.50;6.70;;;7.80;99.90;;;;;;5030550;28;20033;-54
2023/02/04 09:20:48;;;;;;;35.85;7.47;;;8.00;99.90;;;;;;5030588;28;20486;-53
2023/02/04 09:23:14;;;;;;;34.60;7.50;;;8.00;99.90;;;;;;5030778;28;20037;-52
2023/02/04 09:25:41;;;;;;;25.20;6.33;;;8.00;99.90;;;;;;5030735;28;20264;-54
2023/02/04 09:28:11;;;;;;;38.17;7.13;;;8.00;99.90;;;;;;5030423;28;20505;-50
2023/02/04 09:30:38;;;;;;;29.97;6.97;;;8.00;99.90;;;;;;5030744;28;20383;-47
2023/02/04 09:33:04;;;;;;;33.17;7.03;;;8.00;99.90;;;;;;5029356;28;20471;-52
2023/02/04 09:35:29;;;;;;;30.57;6.67;;;8.00;99.90;;;;;;5030396;28;20064;-49
2023/02/04 09:37:55;;;;;;;35.47;6.97;;;8.20;99.90;;;;;;5030497;28;20410;-53
2023/02/04 09:40:22;;;;;;;38.63;8.87;;;8.30;99.90;;;;;;5030476;28;20501;-50
2023/02/04 09:42:49;;;;;;;35.30;7.63;;;8.30;99.90;;;;;;5030499;28;20022;-50
2023/02/04 09:45:25;;;;;;;43.67;8.07;;;8.20;99.90;;;;;;5030294;28;20033;-51
2023/02/04 09:47:53;;;;;;;45.10;8.30;;;8.10;99.90;;;;;;5043047;23;20377;-53
2023/02/04 09:50:23;;;;;;;37.63;8.47;;;8.10;99.90;;;;;;5030393;28;20072;-53
2023/02/04 09:52:51;;;;;;;38.73;8.37;;;8.30;99.90;;;;;;5030523;28;20104;-53
2023/02/04 09:55:19;;;;;;;40.27;8.63;;;8.50;99.90;;;;;;5030135;28;20037;-53
2023/02/04 09:57:46;;;;;;;32.23;6.83;;;8.70;99.90;;;;;;5030107;28;20059;-50
2023/02/04 10:00:17;;;;;;;36.37;8.47;;;8.80;99.90;;;;;;5030257;28;20039;-53
2023/02/04 10:02:43;;;;;;;37.90;8.33;;;8.90;99.90;;;;;;5032617;28;20026;-53
2023/02/04 10:05:17;;;;;;;41.70;8.63;;;9.00;99.90;;;;;;5034397;28;20029;-54
2023/02/04 10:07:45;;;;;;;35.70;8.33;;;9.20;99.90;;;;;;5034315;28;20376;-52
2023/02/04 10:10:17;;;;;;;35.53;9.10;;;9.30;99.90;;;;;;5034326;28;20132;-53
2023/02/04 10:12:44;;;;;;;40.70;8.00;;;9.60;99.90;;;;;;5034323;28;20025;-54
2023/02/04 10:15:21;;;;;;;44.10;9.23;;;9.80;99.90;;;;;;5034355;28;20390;-54
2023/02/04 10:17:50;;;;;;;45.93;9.83;;;9.80;99.90;;;;;;5033953;28;20053;-51
2023/02/04 10:20:18;;;;;;;53.50;11.30;;;9.50;99.90;;;;;;5034276;28;20033;-52
2023/02/04 10:22:45;;;;;;;47.37;11.33;;;9.40;99.90;;;;;;5034196;28;20445;-53
2023/02/04 10:25:16;;;;;;;48.73;13.73;;;9.40;99.90;;;;;;5032621;28;20053;-52
2023/02/04 10:27:57;;;;;;;55.40;16.00;;;9.30;99.90;;;;;;5034420;28;20029;-54
2023/02/04 10:30:32;;;;;;;65.37;21.10;;;9.10;99.90;;;;;;5034189;28;20051;-52
2023/02/04 10:32:58;;;;;;;64.13;19.73;;;9.00;99.90;;;;;;5034080;28;20072;-52
2023/02/04 10:35:25;;;;;;;63.87;17.53;;;8.90;99.90;;;;;;5033783;28;20087;-51
2023/02/04 10:38:04;;;;;;;57.70;14.87;;;8.70;99.90;;;;;;5033509;28;20037;-52
2023/02/04 10:40:32;;;;;;;46.80;10.70;;;8.70;99.90;;;;;;5033832;28;20091;-53
2023/02/04 10:43:05;;;;;;;57.63;14.33;;;8.60;99.90;;;;;;5033904;28;20061;-53
2023/02/04 10:45:31;;;;;;;47.23;13.70;;;8.60;99.90;;;;;;5033736;28;20030;-54
2023/02/04 10:47:57;;;;;;;62.10;15.87;;;8.40;99.90;;;;;;5033415;28;20037;-53
2023/02/04 10:50:25;;;;;;;50.50;14.00;;;8.50;99.90;;;;;;5033606;28;20549;-52
2023/02/04 10:54:28;;;;;;;46.40;11.63;;;8.50;99.90;;;;;;5033994;28;20106;-51
2023/02/04 10:55:49;;;;;;;52.23;14.63;;;8.50;99.90;;;;;;5033553;28;20098;-52
2023/02/04 10:58:24;;;;;;;56.57;14.90;;;8.60;99.90;;;;;;5033393;28;20045;-51
2023/02/04 11:00:50;;;;;;;58.97;14.90;;;8.70;99.90;;;;;;5033614;28;20488;-52
2023/02/04 11:03:23;;;;;;;60.53;15.93;;;8.80;99.90;;;;;;5033696;28;20068;-53
2023/02/04 11:05:49;;;;;;;58.87;17.50;;;8.80;99.90;;;;;;5033886;28;20479;-53
2023/02/04 11:08:23;;;;;;;65.10;19.97;;;8.80;99.90;;;;;;5033379;28;20075;-52
2023/02/04 11:11:00;;;;;;;62.57;21.23;;;8.90;99.90;;;;;;5033654;28;20116;-52
2023/02/04 11:13:39;;;;;;;59.97;17.43;;;9.10;99.90;;;;;;5033225;28;20025;-51
2023/02/04 11:16:25;;;;;;;45.25;15.52;;;9.20;99.90;;;;;;5033610;28;20029;-53
2023/02/04 11:19:05;;;;;;;47.53;14.47;;;9.40;99.90;;;;;;5033383;28;20042;-54
2023/02/04 11:21:31;;;;;;;51.10;16.70;;;9.50;99.90;;;;;;5033324;28;20492;-53
2023/02/04 11:24:15;;;;;;;50.70;17.20;;;9.50;99.90;;;;;;5033196;28;20030;-53
2023/02/04 11:26:48;;;;;;;57.87;17.50;;;9.60;99.90;;;;;;5033241;28;20026;-53
2023/02/04 11:29:14;;;;;;;53.33;17.53;;;9.70;99.90;;;;;;5033271;28;20041;-54
2023/02/04 11:31:49;;;;;;;49.40;16.23;;;9.80;99.90;;;;;;5033318;28;20034;-52
2023/02/04 11:34:14;;;;;;;45.27;15.50;;;9.80;99.90;;;;;;5032836;28;20478;-52
2023/02/04 11:36:55;;;;;;;43.60;16.10;;;9.90;99.90;;;;;;5032991;28;20112;-52
2023/02/04 11:39:26;;;;;;;41.30;15.27;;;9.90;99.90;;;;;;5032875;28;20051;-53
2023/02/04 11:41:51;;;;;;;38.15;13.93;;;10.20;99.90;;;;;;5032999;28;20053;-54
2023/02/04 11:44:18;;;;;;;41.83;14.10;;;10.60;99.90;;;;;;5032620;28;20017;-53
2023/02/04 11:46:54;;;;;;;39.33;11.68;;;10.70;99.90;;;;;;5032864;28;20144;-53
2023/02/04 11:49:22;;;;;;;47.72;13.75;;;10.80;99.90;;;;;;5032517;28;20033;-53
2023/02/04 11:51:48;;;;;;;42.90;15.15;;;10.80;99.90;;;;;;5032942;28;20037;-54
2023/02/04 11:54:18;;;;;;;41.35;13.68;;;10.60;99.90;;;;;;5032517;28;20068;-54
2023/02/04 11:56:51;;;;;;;45.15;14.95;;;10.40;99.90;;;;;;5032433;28;20037;-52
2023/02/04 11:59:20;;;;;;;43.72;15.68;;;10.70;99.90;;;;;;5032183;28;20433;-54
2023/02/04 12:01:46;;;;;;;41.30;14.60;;;10.60;99.90;;;;;;5032579;28;20038;-53
2023/02/04 12:04:23;;;;;;;69.97;20.08;;;10.80;99.90;;;;;;5032229;28;20227;-56
2023/02/04 12:07:02;;;;;;;82.47;22.95;;;10.60;99.90;;;;;;5032151;28;20417;-53
2023/02/04 12:09:30;;;;;;;67.40;18.90;;;10.50;99.90;;;;;;5032096;28;20104;-52
2023/02/04 12:12:01;;;;;;;66.65;18.65;;;10.30;99.90;;;;;;5032261;28;20041;-54
2023/02/04 12:14:30;;;;;;;55.93;16.40;;;10.10;99.90;;;;;;5032120;28;20087;-52
2023/02/04 12:16:56;;;;;;;;;;;10.10;99.90;;;;;;5032643;28;20041;-53
2023/02/04 12:19:22;;;;;;;50.15;13.50;;;10.40;99.90;;;;;;5031879;28;19913;-54
2023/02/04 12:21:48;;;;;;;40.67;11.57;;;10.60;99.90;;;;;;5032044;28;20037;-54
2023/02/04 12:24:14;;;;;;;39.80;12.25;;;10.80;99.90;;;;;;5031315;28;20029;-53
2023/02/04 12:26:39;;;;;;;36.08;10.38;;;10.50;99.90;;;;;;5031679;28;20030;-54
2023/02/04 12:29:05;;;;;;;34.03;9.73;;;10.50;99.90;;;;;;5031709;28;20029;-54
2023/02/04 12:31:32;;;;;;;34.38;9.35;;;10.60;99.90;;;;;;5031813;28;20037;-53
2023/02/04 12:33:58;;;;;;;37.05;9.55;;;10.70;99.90;;;;;;5031596;28;20044;-53
2023/02/04 12:36:26;;;;;;;37.10;8.88;;;11.00;99.90;;;;;;5031437;28;20060;-54
2023/02/04 12:38:52;;;;;;;42.40;9.52;;;11.20;99.90;;;;;;5031362;28;20044;-54
2023/02/04 12:41:18;;;;;;;36.13;9.07;;;11.40;99.90;;;;;;5031499;28;20083;-53
2023/02/04 12:43:45;;;;;;;37.90;8.95;;;11.50;99.90;;;;;;5031414;28;20433;-54
2023/02/04 12:46:11;;;;;;;33.20;8.30;;;11.20;99.90;;;;;;5031387;28;20128;-54